createdAt,value
2022-12-13T00:01:32.690Z,23.03
2022-12-13T00:04:02.184Z,22.40
2022-12-13T00:06:30.785Z,23.20
2022-12-13T00:08:58.572Z,25.67
2022-12-13T00:11:25.474Z,25.47
2022-12-13T00:13:52.457Z,23.70
2022-12-13T00:16:24.335Z,24.33
2022-12-13T00:18:55.463Z,25.10
2022-12-13T00:21:24.694Z,25.10
2022-12-13T00:23:51.621Z,24.27
2022-12-13T00:26:21.412Z,25.23
2022-12-13T00:28:49.488Z,25.00
2022-12-13T00:31:53.573Z,26.83
2022-12-13T00:34:04.580Z,25.20
2022-12-13T00:36:31.320Z,27.37
2022-12-13T00:39:00.980Z,26.63
2022-12-13T00:41:30.584Z,26.70
2022-12-13T00:43:58.211Z,27.70
2022-12-13T00:46:25.342Z,24.83
2022-12-13T00:48:54.992Z,28.97
2022-12-13T00:51:22.727Z,25.97
2022-12-13T00:53:49.843Z,28.17
2022-12-13T00:56:21.429Z,27.10
2022-12-13T00:58:52.218Z,28.60
2022-12-13T01:01:24.784Z,28.33
2022-12-13T01:03:54.387Z,30.87
2022-12-13T01:06:39.439Z,28.53
2022-12-13T01:09:12.453Z,27.87
2022-12-13T01:11:39.283Z,26.63
2022-12-13T01:14:06.248Z,28.60
2022-12-13T01:16:33.444Z,28.80
2022-12-13T01:19:03.414Z,27.73
2022-12-13T01:21:30.205Z,27.17
2022-12-13T01:24:04.321Z,28.20
2022-12-13T01:26:31.624Z,28.33
2022-12-13T01:28:59.028Z,29.87
2022-12-13T01:31:26.743Z,28.17
2022-12-13T01:33:53.437Z,29.60
2022-12-13T01:36:27.112Z,27.90
2022-12-13T01:38:58.706Z,27.83
2022-12-13T01:41:27.590Z,28.03
2022-12-13T01:43:57.687Z,28.57
2022-12-13T01:46:24.589Z,30.37
2022-12-13T01:49:00.782Z,29.30
2022-12-13T01:51:33.973Z,29.40
2022-12-13T01:54:04.565Z,29.50
2022-12-13T01:56:41.701Z,30.57
2022-12-13T01:59:10.631Z,29.23
2022-12-13T02:01:38.619Z,30.60
2022-12-13T02:04:08.686Z,28.20
2022-12-13T02:06:38.798Z,29.90
2022-12-13T02:09:07.935Z,29.47
2022-12-13T02:11:37.923Z,27.50
2022-12-13T02:14:05.648Z,27.50
2022-12-13T02:16:52.900Z,29.47
2022-12-13T02:19:19.655Z,29.30
2022-12-13T02:22:22.930Z,29.73
2022-12-13T02:25:28.696Z,29.13
2022-12-13T02:28:04.999Z,29.43
2022-12-13T02:30:57.090Z,27.70
2022-12-13T02:33:34.989Z,30.43
2022-12-13T02:36:04.813Z,30.47
2022-12-13T02:38:44.856Z,28.50
2022-12-13T02:41:26.822Z,30.97
2022-12-13T02:44:06.084Z,29.90
2022-12-13T02:46:54.857Z,28.90
2022-12-13T02:49:24.105Z,30.57
2022-12-13T02:51:52.603Z,30.77
2022-12-13T02:54:19.334Z,29.90
2022-12-13T02:56:57.114Z,28.73
2022-12-13T02:59:29.712Z,29.10
2022-12-13T03:02:15.173Z,29.40
2022-12-13T03:05:46.056Z,30.57
2022-12-13T03:08:12.781Z,29.07
2022-12-13T03:11:24.127Z,31.60
2022-12-13T03:13:50.714Z,29.30
2022-12-13T03:16:22.551Z,29.93
2022-12-13T03:18:52.726Z,30.93
2022-12-13T03:21:19.602Z,28.47
2022-12-13T03:23:47.752Z,28.40
2022-12-13T03:26:26.865Z,28.17
2022-12-13T03:28:54.048Z,29.03
2022-12-13T03:31:20.910Z,27.10
2022-12-13T03:33:49.168Z,28.40
2022-12-13T03:36:18.870Z,29.40
2022-12-13T03:38:47.702Z,29.67
2022-12-13T03:41:18.048Z,29.93
2022-12-13T03:43:45.248Z,28.37
2022-12-13T03:46:12.650Z,28.80
2022-12-13T03:48:39.641Z,30.20
2022-12-13T03:51:06.727Z,29.30
2022-12-13T03:53:34.599Z,29.30
2022-12-13T03:56:06.352Z,29.20
2022-12-13T03:58:36.191Z,28.33
2022-12-13T04:01:13.242Z,30.47
2022-12-13T04:03:41.687Z,30.67
2022-12-13T04:06:09.212Z,29.97
2022-12-13T04:08:37.870Z,27.90
2022-12-13T04:11:25.392Z,26.90
2022-12-13T04:13:53.311Z,27.93
2022-12-13T04:16:20.782Z,29.47
2022-12-13T04:18:47.751Z,29.27
2022-12-13T04:21:17.478Z,28.80
2022-12-13T04:23:44.262Z,28.70
2022-12-13T04:26:11.069Z,29.27
2022-12-13T04:28:37.900Z,30.23
2022-12-13T04:31:04.726Z,29.27
2022-12-13T04:33:32.810Z,30.90
2022-12-13T04:35:59.943Z,28.90
2022-12-13T04:38:26.683Z,28.70
2022-12-13T04:40:53.384Z,28.50
2022-12-13T04:43:20.097Z,31.10
2022-12-13T04:45:46.935Z,30.50
2022-12-13T04:48:13.900Z,30.10
2022-12-13T04:51:01.346Z,28.70
2022-12-13T04:53:29.938Z,30.43
2022-12-13T04:55:56.727Z,27.87
2022-12-13T04:58:23.479Z,28.63
2022-12-13T05:00:50.315Z,29.93
2022-12-13T05:03:17.227Z,29.97
2022-12-13T05:05:44.025Z,29.93
2022-12-13T05:08:10.946Z,30.33
2022-12-13T05:10:38.277Z,28.67
2022-12-13T05:13:06.403Z,29.20
2022-12-13T05:15:33.991Z,28.30
2022-12-13T05:18:09.859Z,28.30
2022-12-13T05:20:39.517Z,26.13
2022-12-13T05:23:06.313Z,26.80
2022-12-13T05:25:34.252Z,29.80
2022-12-13T05:28:01.035Z,26.63
2022-12-13T05:30:38.629Z,27.60
2022-12-13T05:33:05.421Z,28.80
2022-12-13T05:35:32.094Z,29.07
2022-12-13T05:37:58.904Z,26.40
2022-12-13T05:40:27.803Z,27.00
2022-12-13T05:43:01.693Z,28.30
2022-12-13T05:45:30.031Z,26.70
2022-12-13T05:47:56.872Z,25.67
2022-12-13T05:50:24.599Z,25.07
2022-12-13T05:52:51.835Z,26.57
2022-12-13T05:55:19.269Z,27.30
2022-12-13T05:57:50.568Z,26.77
2022-12-13T06:00:28.685Z,27.73
2022-12-13T06:02:57.852Z,26.10
2022-12-13T06:05:29.447Z,26.27
2022-12-13T06:07:58.156Z,24.77
2022-12-13T06:10:34.881Z,25.93
2022-12-13T06:13:07.888Z,27.83
2022-12-13T06:15:48.393Z,24.17
2022-12-13T06:18:15.498Z,26.00
2022-12-13T06:20:42.192Z,25.90
2022-12-13T06:23:09.190Z,25.30
2022-12-13T06:25:38.828Z,24.43
2022-12-13T06:28:05.545Z,25.90
2022-12-13T06:30:32.578Z,27.50
2022-12-13T06:32:59.484Z,27.40
2022-12-13T06:35:28.884Z,27.47
2022-12-13T06:38:01.194Z,27.17
2022-12-13T06:40:31.783Z,25.93
2022-12-13T06:42:58.574Z,26.03
2022-12-13T06:45:26.066Z,26.47
2022-12-13T06:47:52.728Z,27.53
2022-12-13T06:50:19.605Z,26.57
2022-12-13T06:52:47.116Z,27.40
2022-12-13T06:55:14.228Z,26.87
2022-12-13T06:57:41.608Z,26.70
2022-12-13T07:00:09.862Z,27.03
2022-12-13T07:02:38.297Z,26.53
2022-12-13T07:05:05.982Z,26.73
2022-12-13T07:07:32.769Z,25.77
2022-12-13T07:09:59.666Z,27.17
2022-12-13T07:12:26.394Z,25.63
2022-12-13T07:14:53.247Z,28.27
2022-12-13T07:17:33.676Z,27.13
2022-12-13T07:20:03.447Z,26.70
2022-12-13T07:22:34.911Z,26.70
2022-12-13T07:25:03.402Z,28.37
2022-12-13T07:27:30.183Z,26.73
2022-12-13T07:29:57.999Z,28.57
2022-12-13T07:32:24.966Z,28.60
2022-12-13T07:34:51.804Z,25.83
2022-12-13T07:37:29.395Z,28.77
2022-12-13T07:40:02.998Z,26.33
2022-12-13T07:42:31.092Z,26.33
2022-12-13T07:44:57.934Z,27.43
2022-12-13T07:47:30.156Z,24.83
2022-12-13T07:49:57.458Z,26.83
2022-12-13T07:52:24.577Z,27.10
2022-12-13T07:54:51.340Z,27.10
2022-12-13T07:57:18.044Z,28.50
2022-12-13T07:59:44.809Z,25.77
2022-12-13T08:02:13.343Z,26.83
2022-12-13T08:04:42.093Z,31.90
2022-12-13T08:07:09.702Z,24.73
2022-12-13T08:09:36.926Z,25.57
2022-12-13T08:12:05.339Z,25.37
2022-12-13T08:14:32.600Z,23.83
2022-12-13T08:16:59.726Z,24.83
2022-12-13T08:19:26.760Z,23.90
2022-12-13T08:21:55.782Z,24.53
2022-12-13T08:24:29.434Z,25.20
2022-12-13T08:27:01.451Z,26.53
2022-12-13T08:29:34.853Z,25.67
2022-12-13T08:32:04.373Z,23.27
2022-12-13T08:34:31.927Z,25.20
2022-12-13T08:37:02.065Z,49.20
2022-12-13T08:39:34.644Z,41.73
2022-12-13T08:42:17.021Z,35.27
2022-12-13T08:44:50.246Z,25.90
2022-12-13T08:47:24.134Z,25.80
2022-12-13T08:49:54.236Z,25.83
2022-12-13T08:52:22.785Z,24.83
2022-12-13T08:54:49.708Z,24.70
2022-12-13T08:57:16.605Z,24.50
2022-12-13T08:59:44.871Z,23.07
2022-12-13T09:02:15.343Z,22.67
2022-12-13T09:04:42.478Z,23.50
2022-12-13T09:07:09.361Z,22.50
2022-12-13T09:09:37.437Z,22.40
2022-12-13T09:12:10.781Z,20.90
2022-12-13T09:14:45.568Z,23.77
2022-12-13T09:17:24.369Z,22.30
2022-12-13T09:19:58.014Z,22.77
2022-12-13T09:22:33.909Z,21.90
2022-12-13T09:25:02.465Z,21.57
2022-12-13T09:27:39.572Z,20.67
2022-12-13T09:30:08.279Z,20.20
2022-12-13T09:32:35.027Z,21.47
2022-12-13T09:35:02.050Z,20.50
2022-12-13T09:37:29.740Z,19.70
2022-12-13T09:39:56.698Z,19.50
2022-12-13T09:42:30.585Z,20.13
2022-12-13T09:45:06.590Z,20.20
2022-12-13T09:47:51.070Z,18.03
2022-12-13T09:50:28.897Z,19.13
2022-12-13T09:53:11.742Z,19.70
2022-12-13T09:55:44.387Z,19.80
2022-12-13T09:58:29.088Z,18.53
2022-12-13T10:00:57.173Z,19.13
2022-12-13T10:03:25.889Z,20.10
2022-12-13T10:06:01.502Z,18.13
2022-12-13T10:08:57.275Z,20.13
2022-12-13T10:11:31.977Z,18.80
2022-12-13T10:14:11.158Z,17.73
2022-12-13T10:16:44.791Z,18.63
2022-12-13T10:19:11.658Z,16.90
2022-12-13T10:22:02.300Z,16.23
2022-12-13T10:24:49.785Z,17.63
2022-12-13T10:27:33.596Z,16.57
2022-12-13T10:30:03.420Z,15.83
2022-12-13T10:32:37.624Z,17.47
2022-12-13T10:35:34.472Z,17.27
2022-12-13T10:38:22.834Z,16.73
2022-12-13T10:40:58.851Z,16.33
2022-12-13T10:43:30.426Z,18.00
2022-12-13T10:46:00.464Z,18.87
2022-12-13T10:49:02.656Z,18.83
2022-12-13T10:51:39.406Z,17.67
2022-12-13T10:54:14.008Z,16.67
2022-12-13T10:56:47.749Z,18.47
2022-12-13T10:59:34.387Z,17.80
2022-12-13T11:02:20.397Z,19.30
2022-12-13T11:04:47.199Z,19.73
2022-12-13T11:07:32.116Z,21.07
2022-12-13T11:10:28.457Z,21.80
2022-12-13T11:13:05.230Z,21.20
2022-12-13T11:15:34.913Z,22.43
2022-12-13T11:18:05.418Z,21.93
2022-12-13T11:20:36.392Z,20.60
2022-12-13T11:23:14.746Z,21.33
2022-12-13T11:25:43.869Z,20.33
2022-12-13T11:28:27.628Z,20.93
2022-12-13T11:31:39.219Z,20.30
2022-12-13T11:34:14.328Z,22.20
2022-12-13T11:36:50.053Z,19.50
2022-12-13T11:39:23.360Z,21.43
2022-12-13T11:42:00.419Z,21.37
2022-12-13T11:44:57.803Z,21.70
2022-12-13T11:47:29.069Z,20.00
2022-12-13T11:49:58.627Z,19.50
2022-12-13T11:52:40.968Z,19.53
2022-12-13T11:55:36.752Z,24.47
2022-12-13T11:58:54.007Z,20.87
2022-12-13T12:01:20.823Z,20.97
2022-12-13T12:03:54.806Z,20.10
2022-12-13T12:06:38.779Z,20.13
2022-12-13T12:09:15.571Z,21.30
2022-12-13T12:12:03.639Z,19.30
2022-12-13T12:14:48.336Z,22.87
2022-12-13T12:17:23.475Z,22.33
2022-12-13T12:19:53.881Z,21.40
2022-12-13T12:22:26.483Z,20.77
2022-12-13T12:25:13.997Z,20.17
2022-12-13T12:28:08.605Z,20.50
2022-12-13T12:30:48.259Z,20.23
2022-12-13T12:33:54.309Z,20.97
2022-12-13T12:36:39.777Z,18.47
2022-12-13T12:39:27.814Z,18.43
2022-12-13T12:42:06.675Z,20.17
2022-12-13T12:44:42.629Z,21.00
2022-12-13T12:47:31.947Z,20.00
2022-12-13T12:50:11.060Z,23.10
2022-12-13T12:52:56.133Z,26.90
2022-12-13T12:55:41.120Z,18.67
2022-12-13T12:58:36.828Z,20.00
2022-12-13T13:01:25.525Z,18.30
2022-12-13T13:03:54.218Z,41.50
2022-12-13T13:06:37.928Z,26.40
2022-12-13T13:09:08.115Z,21.80
2022-12-13T13:11:43.140Z,20.23
2022-12-13T13:14:31.642Z,20.00
2022-12-13T13:17:00.420Z,24.57
2022-12-13T13:19:33.011Z,33.53
2022-12-13T13:22:01.502Z,20.40
2022-12-13T13:24:32.979Z,23.47
2022-12-13T13:27:19.655Z,24.50
2022-12-13T13:29:46.808Z,23.43
2022-12-13T13:32:28.798Z,24.13
2022-12-13T13:35:32.253Z,22.40
2022-12-13T13:38:22.334Z,30.40
2022-12-13T13:40:49.748Z,24.67
2022-12-13T13:43:32.254Z,32.00
2022-12-13T13:46:10.923Z,31.40
2022-12-13T13:48:46.840Z,18.07
2022-12-13T13:52:23.884Z,14.77
2022-12-13T13:54:58.416Z,16.23
2022-12-13T13:58:10.844Z,18.00
2022-12-13T14:01:31.498Z,18.90
2022-12-13T14:04:37.958Z,20.83
2022-12-13T14:07:27.101Z,21.17
2022-12-13T14:10:21.139Z,18.57
2022-12-13T14:12:54.042Z,19.90
2022-12-13T14:15:49.612Z,23.30
2022-12-13T14:18:31.726Z,23.37
2022-12-13T14:21:18.769Z,20.63
2022-12-13T14:24:09.997Z,19.07
2022-12-13T14:26:58.202Z,16.43
2022-12-13T14:29:31.807Z,12.67
2022-12-13T14:31:59.489Z,12.90
2022-12-13T14:34:32.797Z,12.10
2022-12-13T14:37:02.093Z,14.63
2022-12-13T14:39:31.365Z,16.53
2022-12-13T14:41:59.889Z,18.17
2022-12-13T14:44:36.234Z,21.50
2022-12-13T14:47:06.608Z,15.10
2022-12-13T14:49:38.351Z,18.70
2022-12-13T14:52:26.568Z,14.53
2022-12-13T14:55:00.815Z,18.30
2022-12-13T14:57:30.007Z,15.80
2022-12-13T14:59:58.898Z,14.30
2022-12-13T15:02:32.331Z,15.63
2022-12-13T15:05:02.123Z,16.37
2022-12-13T15:07:42.106Z,17.80
2022-12-13T15:10:15.076Z,15.67
2022-12-13T15:12:44.337Z,14.90
2022-12-13T15:15:33.696Z,15.30
2022-12-13T15:18:19.885Z,14.07
2022-12-13T15:20:48.434Z,14.40
2022-12-13T15:23:23.185Z,13.50
2022-12-13T15:25:59.088Z,13.20
2022-12-13T15:28:32.837Z,13.30
2022-12-13T15:31:01.324Z,15.60
2022-12-13T15:33:34.413Z,13.57
2022-12-13T15:36:09.180Z,13.90
2022-12-13T15:38:40.429Z,16.13
2022-12-13T15:41:13.821Z,14.10
2022-12-13T15:43:48.183Z,13.20
2022-12-13T15:46:23.439Z,14.10
2022-12-13T15:48:50.372Z,12.60
2022-12-13T15:51:29.424Z,11.87
2022-12-13T15:54:21.902Z,17.90
2022-12-13T15:56:59.236Z,14.00
2022-12-13T15:59:28.810Z,14.43
2022-12-13T16:01:58.418Z,13.03
2022-12-13T16:04:28.740Z,14.63
2022-12-13T16:06:55.982Z,14.40
2022-12-13T16:09:26.351Z,13.10
2022-12-13T16:12:01.859Z,13.37
2022-12-13T16:14:32.010Z,14.83
2022-12-13T16:17:15.637Z,14.57
2022-12-13T16:19:42.702Z,16.20
2022-12-13T16:22:09.480Z,14.43
2022-12-13T16:24:36.804Z,14.07
2022-12-13T16:27:08.186Z,14.70
2022-12-13T16:29:35.929Z,15.37
2022-12-13T16:32:08.684Z,14.90
2022-12-13T16:34:39.308Z,15.53
2022-12-13T16:37:26.791Z,17.13
2022-12-13T16:39:54.294Z,19.33
2022-12-13T16:42:21.265Z,19.57
2022-12-13T16:45:05.839Z,16.83
2022-12-13T16:47:47.806Z,17.00
2022-12-13T16:50:18.188Z,16.67
2022-12-13T16:52:45.024Z,15.77
2022-12-13T16:55:12.489Z,15.20
2022-12-13T16:57:39.656Z,16.97
2022-12-13T17:00:10.102Z,15.93
2022-12-13T17:02:37.884Z,15.37
2022-12-13T17:05:05.881Z,15.93
2022-12-13T17:07:33.264Z,15.93
2022-12-13T17:10:00.161Z,17.57
2022-12-13T17:12:26.839Z,17.07
2022-12-13T17:14:54.381Z,17.43
2022-12-13T17:17:21.379Z,16.33
2022-12-13T17:19:48.203Z,18.73
2022-12-13T17:22:15.079Z,19.10
2022-12-13T17:24:41.944Z,18.13
2022-12-13T17:27:08.773Z,18.07
2022-12-13T17:29:35.627Z,17.87
2022-12-13T17:32:02.684Z,20.20
2022-12-13T17:34:29.749Z,19.10
2022-12-13T17:36:57.058Z,16.53
2022-12-13T17:39:25.474Z,16.10
2022-12-13T17:41:54.811Z,17.47
2022-12-13T17:44:23.590Z,18.27
2022-12-13T17:46:54.712Z,16.37
2022-12-13T17:49:24.609Z,17.50
2022-12-13T17:51:54.118Z,15.83
2022-12-13T17:54:24.310Z,18.70
2022-12-13T17:56:52.529Z,18.30
2022-12-13T17:59:20.165Z,18.37
2022-12-13T18:01:47.905Z,18.33
2022-12-13T18:04:15.280Z,19.77
2022-12-13T18:06:42.880Z,19.27
2022-12-13T18:09:14.208Z,18.33
2022-12-13T18:11:41.561Z,19.63
2022-12-13T18:14:08.941Z,18.37
2022-12-13T18:16:38.654Z,16.90
2022-12-13T18:19:08.044Z,18.07
2022-12-13T18:21:37.266Z,18.80
2022-12-13T18:24:06.382Z,18.97
2022-12-13T18:26:33.780Z,17.77
2022-12-13T18:29:00.733Z,18.90
2022-12-13T18:31:28.128Z,18.47
2022-12-13T18:33:58.145Z,18.60
2022-12-13T18:36:25.871Z,19.00
2022-12-13T18:38:52.997Z,19.40
2022-12-13T18:41:22.616Z,18.70
2022-12-13T18:43:55.899Z,18.57
2022-12-13T18:46:26.974Z,18.87
2022-12-13T18:48:53.848Z,21.90
2022-12-13T18:51:20.746Z,23.10
2022-12-13T18:53:47.651Z,19.77
2022-12-13T18:56:19.203Z,19.73
2022-12-13T18:58:49.134Z,18.90
2022-12-13T19:01:17.827Z,19.30
2022-12-13T19:03:46.038Z,18.43
2022-12-13T19:06:17.869Z,18.70
2022-12-13T19:08:49.126Z,17.37
2022-12-13T19:11:16.667Z,19.60
2022-12-13T19:13:44.175Z,21.33
2022-12-13T19:16:14.732Z,24.57
2022-12-13T19:18:42.738Z,19.50
2022-12-13T19:21:13.406Z,17.53
2022-12-13T19:23:41.058Z,16.40
2022-12-13T19:26:13.543Z,19.03
2022-12-13T19:28:42.066Z,17.47
2022-12-13T19:31:11.908Z,17.90
2022-12-13T19:33:38.986Z,18.63
2022-12-13T19:36:06.552Z,17.30
2022-12-13T19:38:34.141Z,17.57
2022-12-13T19:41:05.970Z,18.33
2022-12-13T19:43:33.172Z,18.00
2022-12-13T19:46:01.362Z,16.43
2022-12-13T19:48:28.657Z,17.50
2022-12-13T19:51:00.476Z,15.13
2022-12-13T19:53:31.484Z,17.10
2022-12-13T19:55:58.823Z,17.00
2022-12-13T19:58:26.673Z,16.47
2022-12-13T20:01:00.862Z,15.70
2022-12-13T20:03:28.356Z,16.67
2022-12-13T20:06:00.108Z,15.50
2022-12-13T20:08:27.329Z,16.27
2022-12-13T20:11:02.740Z,17.93
2022-12-13T20:13:30.120Z,16.00
2022-12-13T20:15:59.382Z,15.93
2022-12-13T20:18:26.447Z,17.00
2022-12-13T20:21:11.769Z,17.80
2022-12-13T20:23:40.964Z,17.40
2022-12-13T20:26:12.145Z,17.03
2022-12-13T20:28:40.059Z,17.30
2022-12-13T20:31:22.499Z,17.80
2022-12-13T20:33:53.532Z,16.30
2022-12-13T20:36:26.476Z,17.30
2022-12-13T20:38:56.310Z,18.50
2022-12-13T20:41:25.724Z,16.93
2022-12-13T20:43:54.773Z,18.03
2022-12-13T20:46:23.483Z,16.97
2022-12-13T20:48:51.430Z,16.83
2022-12-13T20:51:21.835Z,16.80
2022-12-13T20:53:50.879Z,16.77
2022-12-13T20:56:20.751Z,17.70
2022-12-13T20:58:47.770Z,17.67
2022-12-13T21:01:23.552Z,15.80
2022-12-13T21:03:54.103Z,16.13
2022-12-13T21:06:21.710Z,15.33
2022-12-13T21:08:51.384Z,17.17
2022-12-13T21:11:24.513Z,16.90
2022-12-13T21:13:56.347Z,17.90
2022-12-13T21:16:25.180Z,16.70
2022-12-13T21:18:57.425Z,16.70
2022-12-13T21:21:25.812Z,17.57
2022-12-13T21:23:54.135Z,17.97
2022-12-13T21:26:24.384Z,18.67
2022-12-13T21:29:00.481Z,17.83
2022-12-13T21:31:28.993Z,18.23
2022-12-13T21:33:58.670Z,18.97
2022-12-13T21:36:28.539Z,24.90
2022-12-13T21:38:57.736Z,25.17
2022-12-13T21:41:25.210Z,21.37
2022-12-13T21:43:52.275Z,20.83
2022-12-13T21:46:41.391Z,18.03
2022-12-13T21:49:14.835Z,18.43
2022-12-13T21:51:47.384Z,17.37
2022-12-13T21:54:14.736Z,18.13
2022-12-13T21:57:00.192Z,17.30
2022-12-13T21:59:29.057Z,18.67
2022-12-13T22:02:19.971Z,16.50
2022-12-13T22:04:48.045Z,18.60
2022-12-13T22:07:18.957Z,18.63
2022-12-13T22:09:46.637Z,17.93
2022-12-13T22:12:37.213Z,17.30
2022-12-13T22:15:06.911Z,18.07
2022-12-13T22:17:36.034Z,17.10
2022-12-13T22:20:12.690Z,17.83
2022-12-13T22:22:41.483Z,18.47
2022-12-13T22:25:09.486Z,17.80
2022-12-13T22:27:36.365Z,17.10
2022-12-13T22:30:04.472Z,18.90
2022-12-13T22:32:32.321Z,18.00
2022-12-13T22:34:59.368Z,17.13
2022-12-13T22:37:26.711Z,16.80
2022-12-13T22:39:53.636Z,17.30
2022-12-13T22:42:21.399Z,17.73
2022-12-13T22:44:48.288Z,18.03
2022-12-13T22:47:15.203Z,17.30
2022-12-13T22:49:42.174Z,17.03
2022-12-13T22:52:09.344Z,17.77
2022-12-13T22:54:36.309Z,19.73
2022-12-13T22:57:03.349Z,18.70
2022-12-13T22:59:30.400Z,16.37
2022-12-13T23:02:02.050Z,16.63
2022-12-13T23:04:30.296Z,15.17
2022-12-13T23:06:57.134Z,17.00
2022-12-13T23:09:24.027Z,17.60
2022-12-13T23:12:09.603Z,16.43
2022-12-13T23:14:36.461Z,16.90
2022-12-13T23:17:04.014Z,17.43
2022-12-13T23:19:50.608Z,17.50
2022-12-13T23:22:17.861Z,16.33
2022-12-13T23:24:44.638Z,15.20
2022-12-13T23:27:11.467Z,16.27
2022-12-13T23:29:38.415Z,16.47
2022-12-13T23:32:05.222Z,15.23
2022-12-13T23:34:32.298Z,16.53
2022-12-13T23:36:59.107Z,16.77
2022-12-13T23:39:25.988Z,14.40
2022-12-13T23:41:52.753Z,16.80
2022-12-13T23:44:19.710Z,13.37
2022-12-13T23:46:48.747Z,16.07
2022-12-13T23:49:16.628Z,15.30
2022-12-13T23:51:43.598Z,15.77
2022-12-13T23:54:16.399Z,15.77
2022-12-13T23:56:43.455Z,17.37
2022-12-13T23:59:10.254Z,16.27
